sensor_id;sensor_type;location;lat;lon;timestamp;pressure;altitude;pressure_sealevel;temperature;humidity
13235;BME280;6683;48.506;9.050;2023-08-20T00:01:36;98423.94;;;24.57;58.13
13235;BME280;6683;48.506;9.050;2023-08-20T00:04:40;98424.25;;;24.51;58.41
13235;BME280;6683;48.506;9.050;2023-08-20T00:07:45;98427.44;;;24.43;58.41
13235;BME280;6683;48.506;9.050;2023-08-20T00:10:48;98414.25;;;24.36;58.55
13235;BME280;6683;48.506;9.050;2023-08-20T00:13:50;98426.09;;;24.30;58.44
13235;BME280;6683;48.506;9.050;2023-08-20T00:16:53;98427.16;;;24.24;58.76
13235;BME280;6683;48.506;9.050;2023-08-20T00:19:56;98426.63;;;24.17;58.86
13235;BME280;6683;48.506;9.050;2023-08-20T00:23:01;98429.88;;;24.09;58.95
13235;BME280;6683;48.506;9.050;2023-08-20T00:26:04;98431.72;;;24.04;59.19
13235;BME280;6683;48.506;9.050;2023-08-20T00:29:06;98432.75;;;23.98;59.25
13235;BME280;6683;48.506;9.050;2023-08-20T00:32:08;98432.78;;;23.93;59.38
13235;BME280;6683;48.506;9.050;2023-08-20T00:35:10;98428.72;;;23.90;59.71
13235;BME280;6683;48.506;9.050;2023-08-20T00:38:14;98432.22;;;23.86;59.95
13235;BME280;6683;48.506;9.050;2023-08-20T00:41:16;98439.22;;;23.81;59.92
13235;BME280;6683;48.506;9.050;2023-08-20T00:44:19;98440.81;;;23.77;60.14
13235;BME280;6683;48.506;9.050;2023-08-20T00:47:22;98443.22;;;23.74;59.93
13235;BME280;6683;48.506;9.050;2023-08-20T00:50:24;98439.19;;;23.71;60.43
13235;BME280;6683;48.506;9.050;2023-08-20T00:53:28;98439.16;;;23.66;60.47
13235;BME280;6683;48.506;9.050;2023-08-20T00:56:30;98442.13;;;23.65;60.73
13235;BME280;6683;48.506;9.050;2023-08-20T00:59:33;98441.56;;;23.63;60.62
13235;BME280;6683;48.506;9.050;2023-08-20T01:02:37;98440.75;;;23.62;60.79
13235;BME280;6683;48.506;9.050;2023-08-20T01:05:46;98446.66;;;23.59;60.61
13235;BME280;6683;48.506;9.050;2023-08-20T01:08:58;98446.66;;;23.54;60.65
13235;BME280;6683;48.506;9.050;2023-08-20T01:12:04;98445.03;;;23.53;60.83
13235;BME280;6683;48.506;9.050;2023-08-20T01:15:08;98448.53;;;23.49;60.93
13235;BME280;6683;48.506;9.050;2023-08-20T01:18:14;98455.75;;;23.43;61.05
13235;BME280;6683;48.506;9.050;2023-08-20T01:21:29;98444.16;;;23.38;60.91
13235;BME280;6683;48.506;9.050;2023-08-20T01:24:47;98444.66;;;23.35;61.30
13235;BME280;6683;48.506;9.050;2023-08-20T01:27:58;98447.31;;;23.30;61.06
13235;BME280;6683;48.506;9.050;2023-08-20T01:31:06;98457.00;;;23.26;61.42
13235;BME280;6683;48.506;9.050;2023-08-20T01:34:09;98456.47;;;23.24;61.29
13235;BME280;6683;48.506;9.050;2023-08-20T01:37:12;98456.16;;;23.20;61.73
13235;BME280;6683;48.506;9.050;2023-08-20T01:40:14;98455.88;;;23.17;61.50
13235;BME280;6683;48.506;9.050;2023-08-20T01:43:16;98454.22;;;23.11;61.86
13235;BME280;6683;48.506;9.050;2023-08-20T01:46:19;98451.25;;;23.07;61.79
13235;BME280;6683;48.506;9.050;2023-08-20T01:49:22;98458.78;;;23.05;61.82
13235;BME280;6683;48.506;9.050;2023-08-20T01:52:24;98452.03;;;23.02;62.20
13235;BME280;6683;48.506;9.050;2023-08-20T01:55:26;98455.22;;;22.99;62.27
13235;BME280;6683;48.506;9.050;2023-08-20T01:58:29;98452.78;;;22.98;62.25
13235;BME280;6683;48.506;9.050;2023-08-20T02:01:33;98448.72;;;22.95;62.14
13235;BME280;6683;48.506;9.050;2023-08-20T02:04:35;98451.69;;;22.94;62.36
13235;BME280;6683;48.506;9.050;2023-08-20T02:07:37;98449.28;;;22.92;62.24
13235;BME280;6683;48.506;9.050;2023-08-20T02:10:39;98454.09;;;22.90;62.45
13235;BME280;6683;48.506;9.050;2023-08-20T02:13:41;98458.91;;;22.88;62.41
13235;BME280;6683;48.506;9.050;2023-08-20T02:16:46;98454.06;;;22.85;62.62
13235;BME280;6683;48.506;9.050;2023-08-20T02:19:48;98459.16;;;22.87;62.47
13235;BME280;6683;48.506;9.050;2023-08-20T02:22:50;98463.72;;;22.86;62.56
13235;BME280;6683;48.506;9.050;2023-08-20T02:25:53;98463.72;;;22.86;63.01
13235;BME280;6683;48.506;9.050;2023-08-20T02:28:55;98460.50;;;22.84;62.74
13235;BME280;6683;48.506;9.050;2023-08-20T02:31:58;98456.19;;;22.83;62.89
13235;BME280;6683;48.506;9.050;2023-08-20T02:35:00;98451.63;;;22.84;62.86
13235;BME280;6683;48.506;9.050;2023-08-20T02:38:06;98454.56;;;22.82;62.83
13235;BME280;6683;48.506;9.050;2023-08-20T02:41:10;98462.09;;;22.80;63.04
13235;BME280;6683;48.506;9.050;2023-08-20T02:44:12;98474.19;;;22.78;63.04
13235;BME280;6683;48.506;9.050;2023-08-20T02:47:16;98473.06;;;22.74;62.91
13235;BME280;6683;48.506;9.050;2023-08-20T02:50:18;98475.19;;;22.72;62.84
13235;BME280;6683;48.506;9.050;2023-08-20T02:53:20;98466.56;;;22.70;63.10
13235;BME280;6683;48.506;9.050;2023-08-20T02:56:22;98469.53;;;22.68;63.10
13235;BME280;6683;48.506;9.050;2023-08-20T02:59:25;98470.06;;;22.65;63.01
13235;BME280;6683;48.506;9.050;2023-08-20T03:02:29;98477.00;;;22.61;63.10
13235;BME280;6683;48.506;9.050;2023-08-20T03:05:31;98482.06;;;22.58;63.24
13235;BME280;6683;48.506;9.050;2023-08-20T03:08:33;98477.44;;;22.53;63.05
13235;BME280;6683;48.506;9.050;2023-08-20T03:11:35;98469.06;;;22.50;63.37
13235;BME280;6683;48.506;9.050;2023-08-20T03:14:37;98474.94;;;22.47;63.15
13235;BME280;6683;48.506;9.050;2023-08-20T03:17:41;98459.59;;;22.42;63.51
13235;BME280;6683;48.506;9.050;2023-08-20T03:20:43;98461.75;;;22.40;63.16
13235;BME280;6683;48.506;9.050;2023-08-20T03:23:45;98452.31;;;22.38;63.70
13235;BME280;6683;48.506;9.050;2023-08-20T03:26:47;98458.72;;;22.37;63.48
13235;BME280;6683;48.506;9.050;2023-08-20T03:29:51;98459.25;;;22.34;63.63
13235;BME280;6683;48.506;9.050;2023-08-20T03:32:55;98463.25;;;22.31;63.95
13235;BME280;6683;48.506;9.050;2023-08-20T03:35:57;98472.38;;;22.30;63.96
13235;BME280;6683;48.506;9.050;2023-08-20T03:38:59;98464.84;;;22.27;63.99
13235;BME280;6683;48.506;9.050;2023-08-20T03:42:01;98454.34;;;22.25;64.13
13235;BME280;6683;48.506;9.050;2023-08-20T03:45:04;98455.13;;;22.26;63.94
13235;BME280;6683;48.506;9.050;2023-08-20T03:48:08;98456.78;;;22.27;63.85
13235;BME280;6683;48.506;9.050;2023-08-20T03:51:10;98455.13;;;22.26;64.06
13235;BME280;6683;48.506;9.050;2023-08-20T03:54:13;98454.34;;;22.25;63.86
13235;BME280;6683;48.506;9.050;2023-08-20T03:57:16;98454.56;;;22.24;64.08
13235;BME280;6683;48.506;9.050;2023-08-20T04:00:18;98453.53;;;22.25;64.18
13235;BME280;6683;48.506;9.050;2023-08-20T04:03:21;98442.78;;;22.25;64.02
13235;BME280;6683;48.506;9.050;2023-08-20T04:06:24;98434.44;;;22.26;64.22
13235;BME280;6683;48.506;9.050;2023-08-20T04:09:26;98425.56;;;22.26;64.21
13235;BME280;6683;48.506;9.050;2023-08-20T04:12:28;98425.56;;;22.26;64.15
13235;BME280;6683;48.506;9.050;2023-08-20T04:15:30;98431.75;;;22.26;64.31
13235;BME280;6683;48.506;9.050;2023-08-20T04:18:33;98444.63;;;22.24;64.54
13235;BME280;6683;48.506;9.050;2023-08-20T04:21:35;98447.31;;;22.24;64.34
13235;BME280;6683;48.506;9.050;2023-08-20T04:24:38;98439.53;;;22.23;64.47
13235;BME280;6683;48.506;9.050;2023-08-20T04:27:40;98440.56;;;22.22;64.38
13235;BME280;6683;48.506;9.050;2023-08-20T04:30:43;98448.66;;;22.22;64.36
13235;BME280;6683;48.506;9.050;2023-08-20T04:33:48;98448.91;;;22.20;64.61
13235;BME280;6683;48.506;9.050;2023-08-20T04:36:50;98461.53;;;22.20;64.60
13235;BME280;6683;48.506;9.050;2023-08-20T04:39:52;98452.41;;;22.21;64.40
13235;BME280;6683;48.506;9.050;2023-08-20T04:42:54;98456.72;;;22.22;64.30
13235;BME280;6683;48.506;9.050;2023-08-20T04:45:56;98467.72;;;22.20;64.17
13235;BME280;6683;48.506;9.050;2023-08-20T04:49:00;98465.53;;;22.17;64.56
13235;BME280;6683;48.506;9.050;2023-08-20T04:52:02;98477.63;;;22.15;64.19
13235;BME280;6683;48.506;9.050;2023-08-20T04:55:05;98482.47;;;22.13;64.43
13235;BME280;6683;48.506;9.050;2023-08-20T04:58:09;98488.88;;;22.12;64.56
13235;BME280;6683;48.506;9.050;2023-08-20T05:01:11;98492.38;;;22.12;64.66
13235;BME280;6683;48.506;9.050;2023-08-20T05:04:14;98498.81;;;22.11;64.62
13235;BME280;6683;48.506;9.050;2023-08-20T05:07:16;98490.53;;;22.13;64.31
13235;BME280;6683;48.506;9.050;2023-08-20T05:10:18;98481.38;;;22.14;64.54
13235;BME280;6683;48.506;9.050;2023-08-20T05:13:21;98477.38;;;22.16;64.95
13235;BME280;6683;48.506;9.050;2023-08-20T05:16:24;98473.94;;;22.21;64.70
13235;BME280;6683;48.506;9.050;2023-08-20T05:19:28;98482.03;;;22.26;64.56
13235;BME280;6683;48.506;9.050;2023-08-20T05:22:30;98475.06;;;22.30;64.79
13235;BME280;6683;48.506;9.050;2023-08-20T05:25:32;98476.22;;;22.34;65.01
13235;BME280;6683;48.506;9.050;2023-08-20T05:28:34;98478.13;;;22.39;64.76
13235;BME280;6683;48.506;9.050;2023-08-20T05:31:36;98481.13;;;22.42;65.24
13235;BME280;6683;48.506;9.050;2023-08-20T05:34:40;98489.50;;;22.46;65.00
13235;BME280;6683;48.506;9.050;2023-08-20T05:37:42;98493.28;;;22.50;64.99
13235;BME280;6683;48.506;9.050;2023-08-20T05:40:44;98492.53;;;22.54;64.87
13235;BME280;6683;48.506;9.050;2023-08-20T05:43:47;98494.22;;;22.60;65.37
13235;BME280;6683;48.506;9.050;2023-08-20T05:46:49;98493.75;;;22.68;65.08
13235;BME280;6683;48.506;9.050;2023-08-20T05:49:52;98497.06;;;22.75;65.11
13235;BME280;6683;48.506;9.050;2023-08-20T05:52:54;98501.69;;;22.85;65.48
13235;BME280;6683;48.506;9.050;2023-08-20T05:55:57;98496.63;;;22.93;65.44
13235;BME280;6683;48.506;9.050;2023-08-20T05:58:59;98502.09;;;23.03;65.11
13235;BME280;6683;48.506;9.050;2023-08-20T06:02:01;98500.84;;;23.16;65.27
13235;BME280;6683;48.506;9.050;2023-08-20T06:05:06;98498.19;;;23.26;65.11
13235;BME280;6683;48.506;9.050;2023-08-20T06:08:08;98500.75;;;23.38;65.50
13235;BME280;6683;48.506;9.050;2023-08-20T06:11:11;98506.72;;;23.50;65.38
13235;BME280;6683;48.506;9.050;2023-08-20T06:14:13;98512.72;;;23.62;64.86
13235;BME280;6683;48.506;9.050;2023-08-20T06:17:15;98507.34;;;23.72;64.85
13235;BME280;6683;48.506;9.050;2023-08-20T06:20:18;98510.13;;;23.82;64.87
13235;BME280;6683;48.506;9.050;2023-08-20T06:23:21;98516.59;;;23.91;64.66
13235;BME280;6683;48.506;9.050;2023-08-20T06:26:23;98512.63;;;24.04;64.64
13235;BME280;6683;48.506;9.050;2023-08-20T06:29:25;98523.47;;;24.19;64.37
13235;BME280;6683;48.506;9.050;2023-08-20T06:32:27;98511.63;;;24.35;64.17
13235;BME280;6683;48.506;9.050;2023-08-20T06:35:31;98513.56;;;24.44;63.84
13235;BME280;6683;48.506;9.050;2023-08-20T06:38:33;98506.81;;;24.57;63.83
13235;BME280;6683;48.506;9.050;2023-08-20T06:41:35;98513.59;;;24.70;63.74
13235;BME280;6683;48.506;9.050;2023-08-20T06:44:37;98509.81;;;24.86;63.48
13235;BME280;6683;48.506;9.050;2023-08-20T06:47:39;98507.66;;;25.03;63.33
13235;BME280;6683;48.506;9.050;2023-08-20T06:50:43;98511.41;;;25.17;62.95
13235;BME280;6683;48.506;9.050;2023-08-20T06:53:45;98521.13;;;25.33;62.71
13235;BME280;6683;48.506;9.050;2023-08-20T06:56:47;98518.13;;;25.50;62.46
13235;BME280;6683;48.506;9.050;2023-08-20T06:59:49;98523.78;;;25.63;62.10
13235;BME280;6683;48.506;9.050;2023-08-20T07:02:51;98522.41;;;25.71;61.89
13235;BME280;6683;48.506;9.050;2023-08-20T07:05:55;98524.53;;;25.84;61.47
13235;BME280;6683;48.506;9.050;2023-08-20T07:08:57;98524.47;;;25.94;61.45
13235;BME280;6683;48.506;9.050;2023-08-20T07:12:00;98518.47;;;26.07;61.16
13235;BME280;6683;48.506;9.050;2023-08-20T07:15:03;98524.09;;;26.21;60.94
13235;BME280;6683;48.506;9.050;2023-08-20T07:18:06;98526.75;;;26.31;60.89
13235;BME280;6683;48.506;9.050;2023-08-20T07:21:09;98523.19;;;26.40;60.54
13235;BME280;6683;48.506;9.050;2023-08-20T07:24:11;98526.88;;;26.54;60.25
13235;BME280;6683;48.506;9.050;2023-08-20T07:27:14;98533.31;;;26.63;59.90
13235;BME280;6683;48.506;9.050;2023-08-20T07:30:16;98536.50;;;26.70;60.16
13235;BME280;6683;48.506;9.050;2023-08-20T07:33:18;98542.13;;;26.84;60.08
13235;BME280;6683;48.506;9.050;2023-08-20T07:36:22;98542.78;;;27.00;60.15
13235;BME280;6683;48.506;9.050;2023-08-20T07:39:25;98549.47;;;27.12;59.70
13235;BME280;6683;48.506;9.050;2023-08-20T07:42:27;98540.69;;;27.25;59.55
13235;BME280;6683;48.506;9.050;2023-08-20T07:45:29;98545.47;;;27.38;59.00
13235;BME280;6683;48.506;9.050;2023-08-20T07:48:31;98546.41;;;27.52;59.11
13235;BME280;6683;48.506;9.050;2023-08-20T07:51:34;98544.63;;;27.66;58.45
13235;BME280;6683;48.506;9.050;2023-08-20T07:54:37;98538.31;;;27.71;58.51
13235;BME280;6683;48.506;9.050;2023-08-20T07:57:39;98543.94;;;27.80;58.25
13235;BME280;6683;48.506;9.050;2023-08-20T08:00:41;98540.53;;;27.93;58.17
13235;BME280;6683;48.506;9.050;2023-08-20T08:03:43;98548.50;;;28.08;58.47
13235;BME280;6683;48.506;9.050;2023-08-20T08:06:47;98552.94;;;28.22;57.78
13235;BME280;6683;48.506;9.050;2023-08-20T08:09:49;98554.34;;;28.38;58.06
13235;BME280;6683;48.506;9.050;2023-08-20T08:12:51;98550.84;;;28.57;57.87
13235;BME280;6683;48.506;9.050;2023-08-20T08:15:53;98556.25;;;28.75;57.54
13235;BME280;6683;48.506;9.050;2023-08-20T08:18:55;98547.00;;;28.95;57.04
13235;BME280;6683;48.506;9.050;2023-08-20T08:21:59;98550.25;;;29.10;56.51
13235;BME280;6683;48.506;9.050;2023-08-20T08:25:01;98560.41;;;29.23;56.15
13235;BME280;6683;48.506;9.050;2023-08-20T08:28:04;98558.22;;;29.39;55.98
13235;BME280;6683;48.506;9.050;2023-08-20T08:31:06;98552.81;;;29.53;55.68
13235;BME280;6683;48.506;9.050;2023-08-20T08:34:08;98552.44;;;29.73;55.73
13235;BME280;6683;48.506;9.050;2023-08-20T08:37:11;98553.06;;;29.97;55.45
13235;BME280;6683;48.506;9.050;2023-08-20T08:40:14;98552.84;;;30.21;55.15
13235;BME280;6683;48.506;9.050;2023-08-20T08:43:17;98546.66;;;30.42;54.55
13235;BME280;6683;48.506;9.050;2023-08-20T08:46:20;98547.50;;;30.65;54.03
13235;BME280;6683;48.506;9.050;2023-08-20T08:49:23;98544.09;;;30.82;53.69
13235;BME280;6683;48.506;9.050;2023-08-20T08:52:27;98550.34;;;30.96;53.23
13235;BME280;6683;48.506;9.050;2023-08-20T08:55:29;98553.13;;;31.04;53.12
13235;BME280;6683;48.506;9.050;2023-08-20T08:58:32;98544.22;;;31.12;52.67
13235;BME280;6683;48.506;9.050;2023-08-20T09:01:38;98544.44;;;31.24;52.24
13235;BME280;6683;48.506;9.050;2023-08-20T09:04:41;98540.94;;;31.32;52.02
13235;BME280;6683;48.506;9.050;2023-08-20T09:07:45;98547.63;;;31.48;52.12
13235;BME280;6683;48.506;9.050;2023-08-20T09:10:50;98542.91;;;31.71;51.35
13235;BME280;6683;48.506;9.050;2023-08-20T09:13:53;98542.81;;;31.85;50.79
13235;BME280;6683;48.506;9.050;2023-08-20T09:16:55;98547.50;;;31.93;50.83
13235;BME280;6683;48.506;9.050;2023-08-20T09:19:58;98546.63;;;32.14;50.58
13235;BME280;6683;48.506;9.050;2023-08-20T09:23:02;98541.38;;;32.35;49.60
13235;BME280;6683;48.506;9.050;2023-08-20T09:26:06;98543.16;;;32.57;49.54
13235;BME280;6683;48.506;9.050;2023-08-20T09:29:09;98544.13;;;32.78;49.13
13235;BME280;6683;48.506;9.050;2023-08-20T09:32:15;98539.81;;;32.94;48.22
13235;BME280;6683;48.506;9.050;2023-08-20T09:35:18;98532.38;;;33.12;48.17
13235;BME280;6683;48.506;9.050;2023-08-20T09:38:23;98533.66;;;33.31;47.15
13235;BME280;6683;48.506;9.050;2023-08-20T09:41:26;98534.25;;;33.45;47.24
13235;BME280;6683;48.506;9.050;2023-08-20T09:44:33;98538.53;;;33.63;46.80
13235;BME280;6683;48.506;9.050;2023-08-20T09:47:37;98541.81;;;33.86;46.32
13235;BME280;6683;48.506;9.050;2023-08-20T09:50:40;98546.13;;;34.04;46.38
13235;BME280;6683;48.506;9.050;2023-08-20T09:53:51;98534.03;;;34.26;45.42
13235;BME280;6683;48.506;9.050;2023-08-20T09:56:59;98532.34;;;34.42;44.85
13235;BME280;6683;48.506;9.050;2023-08-20T10:00:04;98529.81;;;34.57;45.25
13235;BME280;6683;48.506;9.050;2023-08-20T10:03:10;98527.94;;;34.70;45.03
13235;BME280;6683;48.506;9.050;2023-08-20T10:06:12;98524.47;;;34.82;44.35
13235;BME280;6683;48.506;9.050;2023-08-20T10:09:16;98522.06;;;34.92;43.88
13235;BME280;6683;48.506;9.050;2023-08-20T10:12:19;98518.31;;;34.97;43.55
13235;BME280;6683;48.506;9.050;2023-08-20T10:15:21;98522.75;;;35.10;43.31
13235;BME280;6683;48.506;9.050;2023-08-20T10:18:24;98512.59;;;35.22;42.65
13235;BME280;6683;48.506;9.050;2023-08-20T10:21:28;98510.69;;;35.35;42.70
13235;BME280;6683;48.506;9.050;2023-08-20T10:24:47;98511.53;;;35.48;42.15
13235;BME280;6683;48.506;9.050;2023-08-20T10:27:51;98518.41;;;35.66;41.63
13235;BME280;6683;48.506;9.050;2023-08-20T10:31:09;98517.41;;;35.82;41.09
13235;BME280;6683;48.506;9.050;2023-08-20T10:34:12;98516.94;;;35.92;40.46
13235;BME280;6683;48.506;9.050;2023-08-20T10:37:33;98518.91;;;36.04;40.39
13235;BME280;6683;48.506;9.050;2023-08-20T10:40:52;98513.63;;;36.23;39.92
13235;BME280;6683;48.506;9.050;2023-08-20T10:43:58;98510.75;;;36.44;38.66
13235;BME280;6683;48.506;9.050;2023-08-20T10:47:00;98504.50;;;36.59;38.38
13235;BME280;6683;48.506;9.050;2023-08-20T10:50:09;98503.41;;;36.75;38.10
13235;BME280;6683;48.506;9.050;2023-08-20T10:53:12;98508.81;;;37.00;37.77
13235;BME280;6683;48.506;9.050;2023-08-20T10:56:17;98508.94;;;37.19;37.13
13235;BME280;6683;48.506;9.050;2023-08-20T10:59:23;98504.91;;;37.44;37.19
13235;BME280;6683;48.506;9.050;2023-08-20T11:02:28;98504.47;;;37.73;36.81
13235;BME280;6683;48.506;9.050;2023-08-20T11:05:30;98501.09;;;37.95;36.80
13235;BME280;6683;48.506;9.050;2023-08-20T11:08:33;98497.69;;;38.17;36.38
13235;BME280;6683;48.506;9.050;2023-08-20T11:11:37;98491.84;;;38.38;35.06
13235;BME280;6683;48.506;9.050;2023-08-20T11:14:40;98487.56;;;38.60;34.92
13235;BME280;6683;48.506;9.050;2023-08-20T11:17:43;98488.81;;;38.81;34.21
13235;BME280;6683;48.506;9.050;2023-08-20T11:20:47;98484.09;;;39.01;33.79
13235;BME280;6683;48.506;9.050;2023-08-20T11:23:49;98484.03;;;39.20;33.68
13235;BME280;6683;48.506;9.050;2023-08-20T11:26:53;98473.28;;;39.34;33.43
13235;BME280;6683;48.506;9.050;2023-08-20T11:29:58;98474.19;;;39.42;33.60
13235;BME280;6683;48.506;9.050;2023-08-20T11:33:00;98474.44;;;39.56;33.19
13235;BME280;6683;48.506;9.050;2023-08-20T11:36:03;98468.34;;;39.69;32.57
13235;BME280;6683;48.506;9.050;2023-08-20T11:39:06;98462.41;;;39.67;32.30
13235;BME280;6683;48.506;9.050;2023-08-20T11:42:10;98464.06;;;39.72;32.45
13235;BME280;6683;48.506;9.050;2023-08-20T11:45:12;98468.09;;;39.78;32.21
13235;BME280;6683;48.506;9.050;2023-08-20T11:48:15;98464.56;;;39.81;31.74
13235;BME280;6683;48.506;9.050;2023-08-20T11:51:18;98461.63;;;39.70;31.76
13235;BME280;6683;48.506;9.050;2023-08-20T11:54:20;98453.06;;;39.53;31.62
13235;BME280;6683;48.506;9.050;2023-08-20T11:57:24;98455.22;;;39.40;32.33
13235;BME280;6683;48.506;9.050;2023-08-20T12:00:27;98449.25;;;39.38;32.58
13235;BME280;6683;48.506;9.050;2023-08-20T12:03:30;98447.41;;;39.46;32.54
13235;BME280;6683;48.506;9.050;2023-08-20T12:06:34;98442.13;;;39.37;32.24
13235;BME280;6683;48.506;9.050;2023-08-20T12:09:36;98450.78;;;39.36;31.99
13235;BME280;6683;48.506;9.050;2023-08-20T12:12:40;98436.31;;;39.20;32.33
13235;BME280;6683;48.506;9.050;2023-08-20T12:15:42;98438.47;;;39.10;31.90
13235;BME280;6683;48.506;9.050;2023-08-20T12:18:46;98437.91;;;39.01;32.18
13235;BME280;6683;48.506;9.050;2023-08-20T12:21:48;98436.28;;;38.97;32.20
13235;BME280;6683;48.506;9.050;2023-08-20T12:24:51;98435.22;;;38.82;32.55
13235;BME280;6683;48.506;9.050;2023-08-20T12:27:55;98429.56;;;38.75;32.29
13235;BME280;6683;48.506;9.050;2023-08-20T12:30:58;98423.81;;;38.84;32.66
13235;BME280;6683;48.506;9.050;2023-08-20T12:34:00;98429.59;;;38.98;32.42
13235;BME280;6683;48.506;9.050;2023-08-20T12:37:03;98423.38;;;39.04;31.63
13235;BME280;6683;48.506;9.050;2023-08-20T12:40:07;98422.16;;;39.02;31.02
13235;BME280;6683;48.506;9.050;2023-08-20T12:43:12;98413.06;;;39.01;30.90
13235;BME280;6683;48.506;9.050;2023-08-20T12:46:14;98413.00;;;38.98;30.35
13235;BME280;6683;48.506;9.050;2023-08-20T12:49:16;98409.03;;;38.95;30.56
13235;BME280;6683;48.506;9.050;2023-08-20T12:52:19;98405.09;;;38.96;30.52
13235;BME280;6683;48.506;9.050;2023-08-20T12:55:21;98408.97;;;38.92;30.64
13235;BME280;6683;48.506;9.050;2023-08-20T12:58:25;98407.69;;;38.86;30.72
13235;BME280;6683;48.506;9.050;2023-08-20T13:01:28;98404.47;;;38.84;30.61
13235;BME280;6683;48.506;9.050;2023-08-20T13:04:31;98389.94;;;38.87;30.93
13235;BME280;6683;48.506;9.050;2023-08-20T13:07:34;98390.00;;;38.90;31.11
13235;BME280;6683;48.506;9.050;2023-08-20T13:10:37;98388.47;;;38.93;30.88
13235;BME280;6683;48.506;9.050;2023-08-20T13:13:42;98384.84;;;38.89;30.84
13235;BME280;6683;48.506;9.050;2023-08-20T13:16:45;98383.44;;;38.76;31.24
13235;BME280;6683;48.506;9.050;2023-08-20T13:19:47;98391.22;;;38.70;30.96
13235;BME280;6683;48.506;9.050;2023-08-20T13:22:50;98381.16;;;38.62;31.30
13235;BME280;6683;48.506;9.050;2023-08-20T13:25:52;98374.41;;;38.60;31.26
13235;BME280;6683;48.506;9.050;2023-08-20T13:28:56;98377.97;;;38.60;31.15
13235;BME280;6683;48.506;9.050;2023-08-20T13:31:58;98385.09;;;38.61;31.73
13235;BME280;6683;48.506;9.050;2023-08-20T13:35:01;98380.31;;;38.58;31.43
13235;BME280;6683;48.506;9.050;2023-08-20T13:38:05;98366.81;;;38.53;31.65
13235;BME280;6683;48.506;9.050;2023-08-20T13:41:07;98372.25;;;38.50;31.16
13235;BME280;6683;48.506;9.050;2023-08-20T13:44:10;98363.06;;;38.42;31.60
13235;BME280;6683;48.506;9.050;2023-08-20T13:47:12;98365.31;;;38.36;31.36
13235;BME280;6683;48.506;9.050;2023-08-20T13:50:15;98359.81;;;38.36;31.39
13235;BME280;6683;48.506;9.050;2023-08-20T13:53:17;98364.16;;;38.37;31.81
13235;BME280;6683;48.506;9.050;2023-08-20T13:56:19;98363.78;;;38.39;31.48
13235;BME280;6683;48.506;9.050;2023-08-20T13:59:23;98357.06;;;38.36;31.57
13235;BME280;6683;48.506;9.050;2023-08-20T14:02:25;98356.25;;;38.36;31.48
13235;BME280;6683;48.506;9.050;2023-08-20T14:05:27;98351.81;;;38.31;31.71
13235;BME280;6683;48.506;9.050;2023-08-20T14:08:30;98351.31;;;38.26;31.45
13235;BME280;6683;48.506;9.050;2023-08-20T14:11:32;98356.41;;;38.24;31.54
13235;BME280;6683;48.506;9.050;2023-08-20T14:14:36;98349.63;;;38.21;31.75
13235;BME280;6683;48.506;9.050;2023-08-20T14:17:38;98343.25;;;38.17;31.83
13235;BME280;6683;48.506;9.050;2023-08-20T14:20:40;98336.06;;;38.13;32.17
13235;BME280;6683;48.506;9.050;2023-08-20T14:23:42;98344.69;;;38.11;32.30
13235;BME280;6683;48.506;9.050;2023-08-20T14:26:44;98349.78;;;38.09;32.33
13235;BME280;6683;48.506;9.050;2023-08-20T14:29:48;98348.97;;;38.09;31.99
13235;BME280;6683;48.506;9.050;2023-08-20T14:32:50;98348.53;;;38.07;32.18
13235;BME280;6683;48.506;9.050;2023-08-20T14:35:52;98348.81;;;38.02;31.65
13235;BME280;6683;48.506;9.050;2023-08-20T14:38:54;98336.84;;;37.94;32.14
13235;BME280;6683;48.506;9.050;2023-08-20T14:41:56;98338.75;;;37.90;32.03
13235;BME280;6683;48.506;9.050;2023-08-20T14:45:00;98335.44;;;37.85;31.78
13235;BME280;6683;48.506;9.050;2023-08-20T14:48:04;98334.59;;;37.81;31.70
13235;BME280;6683;48.506;9.050;2023-08-20T14:51:07;98334.06;;;37.75;31.68
13235;BME280;6683;48.506;9.050;2023-08-20T14:54:09;98333.44;;;37.66;31.75
13235;BME280;6683;48.506;9.050;2023-08-20T14:57:11;98338.81;;;37.59;31.78
13235;BME280;6683;48.506;9.050;2023-08-20T15:00:15;98336.34;;;37.54;32.22
13235;BME280;6683;48.506;9.050;2023-08-20T15:03:18;98337.78;;;37.48;32.26
13235;BME280;6683;48.506;9.050;2023-08-20T15:06:20;98334.84;;;37.41;32.44
13235;BME280;6683;48.506;9.050;2023-08-20T15:09:25;98331.22;;;37.37;32.34
13235;BME280;6683;48.506;9.050;2023-08-20T15:12:27;98325.97;;;37.32;32.34
13235;BME280;6683;48.506;9.050;2023-08-20T15:15:31;98328.91;;;37.23;32.43
13235;BME280;6683;48.506;9.050;2023-08-20T15:18:34;98333.00;;;37.14;32.36
13235;BME280;6683;48.506;9.050;2023-08-20T15:21:36;98334.34;;;37.04;32.08
13235;BME280;6683;48.506;9.050;2023-08-20T15:24:38;98321.94;;;36.95;32.36
13235;BME280;6683;48.506;9.050;2023-08-20T15:27:40;98330.81;;;36.88;32.47
13235;BME280;6683;48.506;9.050;2023-08-20T15:30:44;98331.41;;;36.81;32.65
13235;BME280;6683;48.506;9.050;2023-08-20T15:33:46;98333.69;;;36.79;32.67
13235;BME280;6683;48.506;9.050;2023-08-20T15:36:49;98333.59;;;36.76;32.82
13235;BME280;6683;48.506;9.050;2023-08-20T15:39:51;98334.75;;;36.75;32.35
13235;BME280;6683;48.506;9.050;2023-08-20T15:42:54;98340.97;;;36.72;32.61
13235;BME280;6683;48.506;9.050;2023-08-20T15:45:57;98339.72;;;36.69;32.67
13235;BME280;6683;48.506;9.050;2023-08-20T15:48:59;98340.88;;;36.68;32.76
13235;BME280;6683;48.506;9.050;2023-08-20T15:52:02;98334.56;;;36.68;32.64
13235;BME280;6683;48.506;9.050;2023-08-20T15:55:05;98330.22;;;36.67;32.77
13235;BME280;6683;48.506;9.050;2023-08-20T15:58:07;98327.38;;;36.63;32.92
13235;BME280;6683;48.506;9.050;2023-08-20T16:01:11;98327.66;;;36.58;32.96
13235;BME280;6683;48.506;9.050;2023-08-20T16:04:13;98325.59;;;36.55;33.07
13235;BME280;6683;48.506;9.050;2023-08-20T16:07:15;98328.69;;;36.54;33.10
13235;BME280;6683;48.506;9.050;2023-08-20T16:10:18;98330.66;;;36.53;33.19
13235;BME280;6683;48.506;9.050;2023-08-20T16:13:20;98334.19;;;36.54;33.22
13235;BME280;6683;48.506;9.050;2023-08-20T16:16:24;98335.38;;;36.53;33.05
13235;BME280;6683;48.506;9.050;2023-08-20T16:19:26;98336.88;;;36.50;32.97
13235;BME280;6683;48.506;9.050;2023-08-20T16:22:30;98339.50;;;36.47;32.94